Time;durP1;ratioP1;P1;durP2;ratioP2;P2;SDS_P1;SDS_P2;PMS_P1;PMS_P2;Temp;Humidity;BMP_temperature;BMP_pressure;BME280_temperature;BME280_humidity;BME280_pressure;Samples;Min_cycle;Max_cycle;Signal;HPM_P1;HPM_P2
2023/04/08 00:01:35;;;;;;;45.93;25.63;;;;;;;;;;4975419;28;20441;-93
2023/04/08 00:04:01;;;;;;;54.07;26.73;;;;;;;;;;4977785;28;20490;-93
2023/04/08 00:06:27;;;;;;;56.90;29.40;;;;;;;;;;4977041;28;21128;-92
2023/04/08 00:08:53;;;;;;;49.27;27.50;;;;;;;;;;4970489;28;20594;-91
2023/04/08 00:11:20;;;;;;;44.30;25.47;;;;;;;;;;4966199;28;20934;-91
2023/04/08 00:13:46;;;;;;;49.63;28.17;;;;;;;;;;4960816;28;20438;-92
2023/04/08 00:16:12;;;;;;;54.83;28.77;;;;;;;;;;4949904;28;20452;-92
2023/04/08 00:18:38;;;;;;;43.23;24.83;;;;;;;;;;4954865;28;20475;-92
2023/04/08 00:21:04;;;;;;;49.63;26.77;;;;;;;;;;4951114;28;20536;-93
2023/04/08 00:23:30;;;;;;;51.60;24.60;;;;;;;;;;4951660;28;20527;-93
2023/04/08 00:25:56;;;;;;;50.03;26.80;;;;;;;;;;4968154;28;20819;-93
2023/04/08 00:28:22;;;;;;;52.10;26.30;;;;;;;;;;4969624;28;20441;-93
2023/04/08 00:30:48;;;;;;;51.33;26.80;;;;;;;;;;4951655;28;20462;-92
2023/04/08 00:33:15;;;;;;;54.43;27.70;;;;;;;;;;4970061;28;20429;-92
2023/04/08 00:35:41;;;;;;;60.80;27.77;;;;;;;;;;4947404;28;20453;-92
2023/04/08 00:38:07;;;;;;;50.03;28.53;;;;;;;;;;4957547;28;20425;-92
2023/04/08 00:40:34;;;;;;;51.67;25.30;;;;;;;;;;4950281;28;20450;-92
2023/04/08 00:43:00;;;;;;;59.20;27.57;;;;;;;;;;4971484;28;20413;-92
2023/04/08 00:45:26;;;;;;;61.30;30.47;;;;;;;;;;4949208;28;20441;-93
2023/04/08 00:47:52;;;;;;;54.23;27.97;;;;;;;;;;4957071;28;20500;-91
2023/04/08 00:50:19;;;;;;;55.90;29.57;;;;;;;;;;4950150;28;20430;-92
2023/04/08 00:52:45;;;;;;;48.83;27.57;;;;;;;;;;4954430;28;22267;-93
2023/04/08 00:55:14;;;;;;;53.00;29.43;;;;;;;;;;4952307;28;20437;-92
2023/04/08 00:57:40;;;;;;;48.40;27.43;;;;;;;;;;4954404;28;20448;-92
2023/04/08 01:00:08;;;;;;;52.27;32.30;;;;;;;;;;4950727;28;20573;-91
2023/04/08 01:02:53;;;;;;;55.07;28.60;;;;;;;;;;4950847;28;20449;-92
2023/04/08 01:05:24;;;;;;;62.07;28.90;;;;;;;;;;4965539;28;20437;-92
2023/04/08 01:07:50;;;;;;;52.10;26.73;;;;;;;;;;4970486;28;20433;-94
2023/04/08 01:10:17;;;;;;;54.03;29.33;;;;;;;;;;4962406;28;20598;-94
2023/04/08 01:12:48;;;;;;;60.73;28.50;;;;;;;;;;4954803;28;20440;-92
2023/04/08 01:15:14;;;;;;;51.60;27.20;;;;;;;;;;4968610;28;20460;-91
2023/04/08 01:17:41;;;;;;;52.97;27.50;;;;;;;;;;4955932;28;20484;-92
2023/04/08 01:20:08;;;;;;;50.80;28.57;;;;;;;;;;4974168;28;20509;-92
2023/04/08 01:22:41;;;;;;;48.97;27.83;;;;;;;;;;4984397;28;20433;-92
2023/04/08 01:25:09;;;;;;;56.43;31.50;;;;;;;;;;4983975;28;20426;-92
2023/04/08 01:27:36;;;;;;;55.57;27.63;;;;;;;;;;4975434;28;20515;-93
2023/04/08 01:30:07;;;;;;;53.33;30.70;;;;;;;;;;4949211;28;20432;-92
2023/04/08 01:32:34;;;;;;;45.00;27.47;;;;;;;;;;4968745;28;20429;-91
2023/04/08 01:35:00;;;;;;;56.07;30.20;;;;;;;;;;4954931;28;20456;-92
2023/04/08 01:37:27;;;;;;;45.77;27.50;;;;;;;;;;4973554;28;20445;-91
2023/04/08 01:39:54;;;;;;;53.93;29.13;;;;;;;;;;4958639;28;20538;-93
2023/04/08 01:42:22;;;;;;;58.80;31.13;;;;;;;;;;4954333;28;20422;-92
2023/04/08 01:44:49;;;;;;;51.77;25.30;;;;;;;;;;4966689;28;20427;-93
2023/04/08 01:47:15;;;;;;;50.13;27.77;;;;;;;;;;4949847;28;20480;-92
2023/04/08 01:49:44;;;;;;;61.17;30.47;;;;;;;;;;4953720;28;20449;-92
2023/04/08 01:52:10;;;;;;;57.50;29.53;;;;;;;;;;4950905;28;20600;-93
2023/04/08 01:54:36;;;;;;;61.60;30.20;;;;;;;;;;4951375;28;20436;-91
2023/04/08 01:57:05;;;;;;;54.53;28.67;;;;;;;;;;4952454;28;20438;-93
2023/04/08 01:59:34;;;;;;;53.40;26.17;;;;;;;;;;4948234;28;20461;-92
2023/04/08 02:02:01;;;;;;;59.67;29.43;;;;;;;;;;4968478;28;20539;-91
2023/04/08 02:04:27;;;;;;;58.30;28.83;;;;;;;;;;4954272;28;20444;-92
2023/04/08 02:06:54;;;;;;;61.00;28.00;;;;;;;;;;4955407;28;20453;-93
2023/04/08 02:09:20;;;;;;;61.37;28.40;;;;;;;;;;4966799;28;20453;-92
2023/04/08 02:11:46;;;;;;;52.67;27.00;;;;;;;;;;4969300;28;20450;-92
2023/04/08 02:14:12;;;;;;;60.10;25.30;;;;;;;;;;4962409;28;21496;-90
2023/04/08 02:16:54;;;;;;;47.77;24.23;;;;;;;;;;4949927;28;20488;-92
2023/04/08 02:19:25;;;;;;;52.57;24.13;;;;;;;;;;4955199;28;20480;-92
2023/04/08 02:21:57;;;;;;;45.90;22.40;;;;;;;;;;4965721;28;20448;-93
2023/04/08 02:24:23;;;;;;;49.67;22.30;;;;;;;;;;4969596;28;20425;-92
2023/04/08 02:26:50;;;;;;;57.67;24.80;;;;;;;;;;4953764;28;21183;-92
2023/04/08 02:29:20;;;;;;;43.87;21.33;;;;;;;;;;4958436;28;21249;-93
2023/04/08 02:31:47;;;;;;;47.53;23.97;;;;;;;;;;4953209;28;20476;-92
2023/04/08 02:34:14;;;;;;;52.83;24.50;;;;;;;;;;4956882;28;20438;-92
2023/04/08 02:36:44;;;;;;;51.17;24.10;;;;;;;;;;4954729;28;20456;-92
2023/04/08 02:39:10;;;;;;;48.13;23.43;;;;;;;;;;4953417;28;20469;-92
2023/04/08 02:41:36;;;;;;;45.30;21.77;;;;;;;;;;4954762;28;20488;-91
2023/04/08 02:44:03;;;;;;;36.47;20.00;;;;;;;;;;4952792;28;20433;-95
2023/04/08 02:46:29;;;;;;;48.13;22.53;;;;;;;;;;4973550;28;20953;-92
2023/04/08 02:48:55;;;;;;;48.80;23.27;;;;;;;;;;4957818;28;20468;-92
2023/04/08 02:51:21;;;;;;;45.20;22.93;;;;;;;;;;4948646;29;20552;-93
2023/04/08 02:53:47;;;;;;;46.40;22.67;;;;;;;;;;4958589;28;20503;-93
2023/04/08 02:56:13;;;;;;;50.67;24.70;;;;;;;;;;4957462;28;20499;-92
2023/04/08 02:58:39;;;;;;;43.17;23.00;;;;;;;;;;4963857;28;20466;-94
2023/04/08 03:01:07;;;;;;;46.63;23.47;;;;;;;;;;4971818;28;20449;-92
2023/04/08 03:03:33;;;;;;;49.10;22.20;;;;;;;;;;4994005;28;20437;-93
2023/04/08 03:05:59;;;;;;;52.17;24.43;;;;;;;;;;4973254;28;20440;-93
2023/04/08 03:08:25;;;;;;;44.00;22.60;;;;;;;;;;4965753;28;20433;-93
2023/04/08 03:10:51;;;;;;;45.13;21.17;;;;;;;;;;4969398;28;20511;-91
2023/04/08 03:13:17;;;;;;;54.00;22.57;;;;;;;;;;4958023;28;20417;-92
2023/04/08 03:15:43;;;;;;;50.70;22.80;;;;;;;;;;4951015;28;20455;-94
2023/04/08 03:18:10;;;;;;;48.00;23.27;;;;;;;;;;4958423;28;20417;-92
2023/04/08 03:20:36;;;;;;;53.20;24.70;;;;;;;;;;4952627;28;20421;-94
2023/04/08 03:23:02;;;;;;;43.07;21.30;;;;;;;;;;4963578;28;20414;-92
2023/04/08 03:25:28;;;;;;;48.60;26.60;;;;;;;;;;4983864;28;20536;-92
2023/04/08 03:27:55;;;;;;;46.70;22.43;;;;;;;;;;4987544;28;20410;-91
2023/04/08 03:30:21;;;;;;;52.10;24.37;;;;;;;;;;4973804;28;20532;-92
2023/04/08 03:32:47;;;;;;;51.23;25.50;;;;;;;;;;4971038;28;20484;-92
2023/04/08 03:35:13;;;;;;;49.13;22.80;;;;;;;;;;4950267;28;20445;-93
2023/04/08 03:37:39;;;;;;;41.43;21.47;;;;;;;;;;4971865;28;20413;-92
2023/04/08 03:40:05;;;;;;;49.27;23.93;;;;;;;;;;4976245;28;20460;-92
2023/04/08 03:42:32;;;;;;;60.10;23.50;;;;;;;;;;4969289;28;20445;-92
2023/04/08 03:44:58;;;;;;;51.07;25.07;;;;;;;;;;4974990;28;20449;-91
2023/04/08 03:47:24;;;;;;;57.63;25.23;;;;;;;;;;4975294;28;20441;-91
2023/04/08 03:49:53;;;;;;;51.40;25.07;;;;;;;;;;4969225;28;20433;-92
2023/04/08 03:52:19;;;;;;;63.33;26.03;;;;;;;;;;4969174;28;20472;-93
2023/04/08 03:54:45;;;;;;;60.73;24.60;;;;;;;;;;4975486;28;20437;-93
2023/04/08 03:57:11;;;;;;;58.77;27.17;;;;;;;;;;4946621;28;20452;-92
2023/04/08 03:59:39;;;;;;;60.23;26.87;;;;;;;;;;4953856;28;20468;-92
2023/04/08 04:02:06;;;;;;;69.63;27.00;;;;;;;;;;4949892;28;20441;-93
2023/04/08 04:04:32;;;;;;;56.60;29.23;;;;;;;;;;4953288;28;20465;-92
2023/04/08 04:06:58;;;;;;;59.03;27.90;;;;;;;;;;4953261;28;20449;-93
2023/04/08 04:09:25;;;;;;;70.40;28.30;;;;;;;;;;4971832;28;20457;-93
2023/04/08 04:11:51;;;;;;;67.33;31.70;;;;;;;;;;4959427;28;20437;-93
2023/04/08 04:14:17;;;;;;;65.97;30.60;;;;;;;;;;4966622;28;20477;-93
2023/04/08 04:16:43;;;;;;;68.20;32.97;;;;;;;;;;4970804;28;20453;-93
2023/04/08 04:19:09;;;;;;;63.63;31.17;;;;;;;;;;4968379;28;20828;-92
2023/04/08 04:21:35;;;;;;;65.07;31.10;;;;;;;;;;4962121;28;20533;-92
2023/04/08 04:24:01;;;;;;;60.50;30.73;;;;;;;;;;4972018;28;20437;-92
2023/04/08 04:26:27;;;;;;;64.67;30.67;;;;;;;;;;4969321;28;20472;-92
2023/04/08 04:28:54;;;;;;;65.70;30.27;;;;;;;;;;4971775;28;20461;-93
2023/04/08 04:31:21;;;;;;;58.17;28.60;;;;;;;;;;4972123;28;20434;-93
2023/04/08 04:33:48;;;;;;;63.87;28.80;;;;;;;;;;4973843;28;20455;-93
2023/04/08 04:36:14;;;;;;;70.67;28.73;;;;;;;;;;4970041;28;20476;-93
2023/04/08 04:38:41;;;;;;;68.70;28.17;;;;;;;;;;4981017;28;20468;-91
2023/04/08 04:41:07;;;;;;;68.67;30.07;;;;;;;;;;4971847;28;20445;-93
2023/04/08 04:43:33;;;;;;;57.17;26.70;;;;;;;;;;4961543;28;20433;-93
2023/04/08 04:46:01;;;;;;;65.37;30.50;;;;;;;;;;4955960;28;20488;-93
2023/04/08 04:48:30;;;;;;;64.90;28.47;;;;;;;;;;4959058;28;20500;-93
2023/04/08 04:50:56;;;;;;;60.87;28.70;;;;;;;;;;4957559;28;20465;-91
2023/04/08 04:53:22;;;;;;;69.00;29.93;;;;;;;;;;4960406;28;20429;-91
2023/04/08 04:55:49;;;;;;;61.57;29.57;;;;;;;;;;4960376;28;20457;-91
2023/04/08 04:58:15;;;;;;;65.17;28.10;;;;;;;;;;4962025;28;20600;-93
2023/04/08 05:00:41;;;;;;;63.90;30.40;;;;;;;;;;4960015;28;20445;-92
2023/04/08 05:03:07;;;;;;;68.63;27.80;;;;;;;;;;4961196;28;20437;-92
2023/04/08 05:05:33;;;;;;;61.33;28.73;;;;;;;;;;4956340;28;20464;-92
2023/04/08 05:08:00;;;;;;;55.43;27.90;;;;;;;;;;4949764;28;20942;-94
2023/04/08 05:10:26;;;;;;;61.30;28.53;;;;;;;;;;4968681;28;20452;-92
2023/04/08 05:12:52;;;;;;;57.23;27.00;;;;;;;;;;4974627;28;20433;-93
2023/04/08 05:15:18;;;;;;;57.63;26.57;;;;;;;;;;4955051;28;20624;-93
2023/04/08 05:17:44;;;;;;;63.60;28.97;;;;;;;;;;4950859;28;20475;-93
2023/04/08 05:20:10;;;;;;;59.40;26.87;;;;;;;;;;4946912;28;20527;-93
2023/04/08 05:22:36;;;;;;;56.77;27.17;;;;;;;;;;4969101;28;20663;-92
2023/04/08 05:25:03;;;;;;;62.37;27.83;;;;;;;;;;4963501;28;20699;-93
2023/04/08 05:27:29;;;;;;;59.87;27.03;;;;;;;;;;4952857;28;20409;-93
2023/04/08 05:29:55;;;;;;;68.00;27.90;;;;;;;;;;4950240;28;20480;-92
2023/04/08 05:32:21;;;;;;;70.53;26.73;;;;;;;;;;4953579;28;20449;-91
2023/04/08 05:34:47;;;;;;;67.80;27.70;;;;;;;;;;4945953;28;20441;-93
2023/04/08 05:37:13;;;;;;;68.60;30.20;;;;;;;;;;4971564;28;20457;-93
2023/04/08 05:39:39;;;;;;;64.87;29.70;;;;;;;;;;4947309;28;20529;-91
2023/04/08 05:42:05;;;;;;;66.10;29.30;;;;;;;;;;4954741;28;20832;-92
2023/04/08 05:44:31;;;;;;;67.23;30.37;;;;;;;;;;4950194;28;20476;-93
2023/04/08 05:46:59;;;;;;;66.90;31.03;;;;;;;;;;4971394;28;20954;-93
2023/04/08 05:49:25;;;;;;;65.60;32.97;;;;;;;;;;4956580;28;20444;-92
2023/04/08 05:51:51;;;;;;;70.33;30.57;;;;;;;;;;4980000;28;20472;-91
2023/04/08 05:54:17;;;;;;;66.87;32.60;;;;;;;;;;4973190;28;20428;-93
2023/04/08 05:56:45;;;;;;;60.83;28.80;;;;;;;;;;4976144;28;20468;-92
2023/04/08 05:59:11;;;;;;;67.10;29.10;;;;;;;;;;4980169;28;20463;-92
2023/04/08 06:01:37;;;;;;;71.80;32.53;;;;;;;;;;4981215;28;20464;-92
2023/04/08 06:04:03;;;;;;;64.93;31.63;;;;;;;;;;4997452;28;20437;-93
2023/04/08 06:06:29;;;;;;;62.70;29.30;;;;;;;;;;4992914;28;20443;-92
2023/04/08 06:09:08;;;;;;;;;;;;;;;;;;;;;
2023/04/08 06:11:38;;;;;;;62.00;29.13;;;;;;;;;;4988029;28;20501;-92
2023/04/08 06:14:04;;;;;;;68.60;31.70;;;;;;;;;;4979372;28;20460;-92
2023/04/08 06:16:33;;;;;;;69.23;32.00;;;;;;;;;;4988571;28;20444;-92
2023/04/08 06:19:00;;;;;;;53.43;29.83;;;;;;;;;;4969780;28;20464;-93
2023/04/08 06:21:26;;;;;;;56.77;29.70;;;;;;;;;;4976541;28;20441;-92
2023/04/08 06:23:52;;;;;;;59.80;29.93;;;;;;;;;;4971871;28;20492;-93
2023/04/08 06:26:18;;;;;;;52.70;28.90;;;;;;;;;;4977808;28;20440;-89
2023/04/08 06:28:44;;;;;;;57.30;28.67;;;;;;;;;;4976342;28;20437;-92
2023/04/08 06:31:10;;;;;;;62.50;29.80;;;;;;;;;;4961342;28;20440;-93
2023/04/08 06:33:37;;;;;;;59.87;31.30;;;;;;;;;;4959676;28;20453;-91
2023/04/08 06:36:04;;;;;;;62.57;30.90;;;;;;;;;;4955510;28;20456;-93
2023/04/08 06:38:33;;;;;;;63.07;30.40;;;;;;;;;;4974783;28;20448;-91
2023/04/08 06:41:06;;;;;;;59.47;27.63;;;;;;;;;;4954682;28;20790;-92
2023/04/08 06:43:32;;;;;;;51.37;29.03;;;;;;;;;;4955911;28;20496;-92
2023/04/08 06:46:01;;;;;;;51.07;27.70;;;;;;;;;;4972667;28;20459;-92
2023/04/08 06:48:29;;;;;;;46.47;24.90;;;;;;;;;;4955033;28;20631;-92
2023/04/08 06:51:00;;;;;;;49.03;24.33;;;;;;;;;;4972737;28;20555;-93
2023/04/08 06:53:28;;;;;;;50.50;26.80;;;;;;;;;;4955488;28;20949;-91
2023/04/08 06:55:54;;;;;;;50.97;27.97;;;;;;;;;;4971956;28;20492;-94
2023/04/08 06:58:20;;;;;;;49.47;25.77;;;;;;;;;;4958043;28;20437;-91
2023/04/08 07:00:47;;;;;;;52.43;24.33;;;;;;;;;;4967688;28;20963;-92
2023/04/08 07:03:13;;;;;;;56.83;26.90;;;;;;;;;;4957648;28;20476;-91
2023/04/08 07:05:41;;;;;;;54.33;27.73;;;;;;;;;;4957867;28;20453;-91
2023/04/08 07:08:07;;;;;;;46.70;25.20;;;;;;;;;;4953029;28;20480;-93
2023/04/08 07:10:34;;;;;;;52.00;27.17;;;;;;;;;;4951679;28;20454;-91
2023/04/08 07:13:08;;;;;;;51.30;25.57;;;;;;;;;;4970030;28;20537;-92
2023/04/08 07:15:34;;;;;;;46.47;26.57;;;;;;;;;;4956874;28;20468;-94
2023/04/08 07:18:00;;;;;;;44.33;24.20;;;;;;;;;;4964487;28;20453;-92
2023/04/08 07:20:27;;;;;;;43.93;25.87;;;;;;;;;;4965330;28;20558;-93
2023/04/08 07:22:53;;;;;;;38.80;24.33;;;;;;;;;;4965979;28;20465;-92
2023/04/08 07:25:19;;;;;;;38.70;23.40;;;;;;;;;;4959289;28;20456;-92
2023/04/08 07:27:48;;;;;;;50.77;26.53;;;;;;;;;;4953049;28;20639;-91
2023/04/08 07:30:14;;;;;;;46.90;26.67;;;;;;;;;;4953892;28;20838;-93
2023/04/08 07:32:43;;;;;;;51.53;26.67;;;;;;;;;;4948820;28;20468;-92
2023/04/08 07:35:09;;;;;;;49.80;26.13;;;;;;;;;;4952571;28;20445;-92
2023/04/08 07:37:36;;;;;;;44.60;25.40;;;;;;;;;;4957790;28;20938;-91
2023/04/08 07:40:02;;;;;;;40.67;23.63;;;;;;;;;;4953742;28;20491;-92
2023/04/08 07:42:28;;;;;;;46.50;27.90;;;;;;;;;;4956076;28;20434;-93
2023/04/08 07:44:54;;;;;;;49.77;26.67;;;;;;;;;;4953758;28;20819;-92
2023/04/08 07:47:20;;;;;;;52.33;28.23;;;;;;;;;;4956447;28;20536;-94
2023/04/08 07:49:49;;;;;;;42.73;25.40;;;;;;;;;;4955286;28;20492;-91
2023/04/08 07:52:15;;;;;;;40.93;25.10;;;;;;;;;;4959109;28;20469;-92
2023/04/08 07:54:41;;;;;;;43.27;26.50;;;;;;;;;;4955372;28;20495;-95
2023/04/08 07:57:07;;;;;;;44.03;26.23;;;;;;;;;;4964079;28;20452;-93
2023/04/08 07:59:38;;;;;;;53.00;28.83;;;;;;;;;;4956991;28;21342;-90
2023/04/08 08:02:04;;;;;;;42.00;24.47;;;;;;;;;;4988771;23;20534;-79
2023/04/08 08:04:30;;;;;;;44.00;27.47;;;;;;;;;;4984679;28;20484;-81
2023/04/08 08:06:56;;;;;;;46.47;27.47;;;;;;;;;;4981600;28;20497;-81
2023/04/08 08:09:22;;;;;;;43.67;26.87;;;;;;;;;;4990944;28;20416;-83
2023/04/08 08:11:51;;;;;;;44.67;27.67;;;;;;;;;;5094865;23;20505;-84
2023/04/08 08:14:17;;;;;;;44.80;27.70;;;;;;;;;;4951662;29;20531;-86
2023/04/08 08:16:43;;;;;;;73.90;40.57;;;;;;;;;;4960727;23;20411;-91
2023/04/08 08:19:11;;;;;;;41.80;28.73;;;;;;;;;;4969989;28;20567;-90
2023/04/08 08:21:38;;;;;;;48.37;32.00;;;;;;;;;;4966508;28;20452;-91
2023/04/08 08:24:04;;;;;;;47.37;29.17;;;;;;;;;;4970741;28;20433;-89
2023/04/08 08:26:40;;;;;;;47.80;27.83;;;;;;;;;;4969085;28;20554;-91
2023/04/08 08:29:08;;;;;;;48.97;30.13;;;;;;;;;;4978653;28;20483;-92
2023/04/08 08:31:35;;;;;;;52.80;31.77;;;;;;;;;;4959159;28;20437;-90
2023/04/08 08:34:01;;;;;;;50.73;30.87;;;;;;;;;;4969152;28;20417;-91
2023/04/08 08:36:31;;;;;;;45.27;31.07;;;;;;;;;;4977172;28;20461;-88
2023/04/08 08:38:57;;;;;;;44.93;31.03;;;;;;;;;;4958985;28;20561;-90
2023/04/08 08:41:24;;;;;;;55.63;31.73;;;;;;;;;;4962743;28;20649;-91
2023/04/08 08:43:50;;;;;;;45.83;31.30;;;;;;;;;;4950781;28;20470;-91
2023/04/08 08:46:17;;;;;;;49.60;32.47;;;;;;;;;;4951069;29;20545;-90
2023/04/08 08:48:51;;;;;;;52.23;35.90;;;;;;;;;;4952197;28;20435;-92
2023/04/08 08:51:17;;;;;;;47.57;33.17;;;;;;;;;;4954919;29;20497;-90
2023/04/08 08:53:48;;;;;;;50.30;32.73;;;;;;;;;;4956717;28;20453;-91
2023/04/08 08:56:15;;;;;;;40.83;30.77;;;;;;;;;;4960497;29;20454;-89
2023/04/08 08:58:41;;;;;;;45.70;33.23;;;;;;;;;;4962662;28;20462;-90
2023/04/08 09:01:28;;;;;;;43.27;30.70;;;;;;;;;;4959583;28;20512;-89
2023/04/08 09:04:07;;;;;;;44.83;34.47;;;;;;;;;;4953475;28;20934;-91
2023/04/08 09:06:43;;;;;;;42.27;31.50;;;;;;;;;;4935232;28;20431;-91
2023/04/08 09:09:09;;;;;;;53.33;41.27;;;;;;;;;;4938756;28;20520;-91
2023/04/08 09:11:45;;;;;;;48.10;32.03;;;;;;;;;;4948065;28;20445;-91
2023/04/08 09:14:19;;;;;;;37.63;27.90;;;;;;;;;;4937122;28;20442;-87
2023/04/08 09:16:45;;;;;;;45.83;32.70;;;;;;;;;;4931153;28;20489;-91
2023/04/08 09:19:12;;;;;;;41.30;32.17;;;;;;;;;;4957233;28;20454;-92
2023/04/08 09:21:40;;;;;;;41.63;31.77;;;;;;;;;;4937804;28;20457;-91
2023/04/08 09:24:06;;;;;;;39.67;29.37;;;;;;;;;;4951285;28;20409;-91
2023/04/08 09:26:36;;;;;;;37.37;30.37;;;;;;;;;;4957733;28;20453;-90
2023/04/08 09:29:06;;;;;;;36.13;27.80;;;;;;;;;;4962674;28;20422;-89
2023/04/08 09:31:43;;;;;;;30.43;27.23;;;;;;;;;;4934923;29;20442;-90
2023/04/08 09:34:10;;;;;;;30.50;25.37;;;;;;;;;;4939317;29;20974;-92
2023/04/08 09:36:40;;;;;;;32.83;28.03;;;;;;;;;;4954529;28;20477;-90
2023/04/08 09:39:07;;;;;;;34.73;27.13;;;;;;;;;;4961872;29;20744;-89
2023/04/08 09:41:35;;;;;;;46.27;25.80;;;;;;;;;;4937250;29;20827;-91
2023/04/08 09:44:03;;;;;;;25.40;22.77;;;16.40;99.90;;;;;;4940526;29;20464;-91
2023/04/08 09:46:35;;;;;;;24.80;22.30;;;16.30;99.90;;;;;;4953180;28;20525;-87
2023/04/08 09:49:12;;;;;;;21.27;19.30;;;16.90;99.90;;;;;;4948756;28;20545;-93
2023/04/08 09:51:48;;;;;;;19.57;17.80;;;17.40;99.90;;;;;;4939756;28;20441;-91
2023/04/08 09:54:22;;;;;;;20.23;18.43;;;17.20;99.90;;;;;;4937275;28;20422;-92
2023/04/08 09:57:04;;;;;;;24.83;20.90;;;15.30;99.90;;;;;;4949818;28;21134;-91
2023/04/08 09:59:33;;;;;;;22.10;19.80;;;16.10;99.90;;;;;;4924162;28;20558;-90
2023/04/08 10:02:04;;;;;;;19.30;17.70;;;15.70;99.90;;;;;;4939808;28;20453;-89
2023/04/08 10:04:35;;;;;;;19.10;17.40;;;14.80;99.90;;;;;;4937688;28;20488;-91
2023/04/08 10:07:05;;;;;;;18.57;16.73;;;14.70;99.90;;;;;;4940773;28;20510;-92
2023/04/08 10:09:37;;;;;;;15.50;14.10;;;14.60;99.90;;;;;;4921939;28;20481;-90
2023/04/08 10:12:04;;;;;;;15.87;14.47;;;14.50;99.90;;;;;;4943350;28;20441;-91
2023/04/08 10:14:31;;;;;;;16.00;14.73;;;;;;;;;;4944511;28;20516;-90
2023/04/08 10:17:30;;;;;;;15.97;14.57;;;14.50;99.90;;;;;;4959292;28;20667;-90
2023/04/08 10:19:57;;;;;;;17.07;15.60;;;14.60;99.90;;;;;;4960264;28;20493;-91
2023/04/08 10:22:34;;;;;;;16.47;14.97;;;14.50;99.90;;;;;;4958497;28;20438;-91
2023/04/08 10:25:44;;;;;;;16.33;14.80;;;14.80;99.90;;;;;;4962903;28;20435;-90
2023/04/08 10:28:18;;;;;;;15.80;12.33;;;14.70;99.90;;;;;;4944841;28;20449;-86
2023/04/08 10:31:24;;;;;;;12.80;11.80;;;13.50;99.90;;;;;;4955097;28;20433;-91
2023/04/08 10:34:21;;;;;;;13.30;12.20;;;13.50;99.90;;;;;;4928202;29;20427;-91
2023/04/08 10:36:47;;;;;;;12.97;11.10;;;;;;;;;;4942807;29;20446;-90
2023/04/08 10:39:16;;;;;;;11.83;10.80;;;13.40;99.90;;;;;;4947448;28;20509;-91
2023/04/08 10:41:47;;;;;;;13.77;12.43;;;13.40;99.90;;;;;;4946511;29;20495;-89
2023/04/08 10:44:23;;;;;;;13.80;12.63;;;13.70;99.90;;;;;;4955769;28;20438;-91
2023/04/08 10:46:50;;;;;;;15.57;11.23;;;;;;;;;;4951301;29;20411;-92
2023/04/08 10:49:20;;;;;;;13.80;12.40;;;13.00;99.90;;;;;;4951524;28;20438;-90
2023/04/08 10:51:47;;;;;;;13.47;12.27;;;12.90;99.90;;;;;;4953986;29;20462;-91
2023/04/08 10:54:15;;;;;;;12.83;11.67;;;12.80;99.90;;;;;;4945360;28;20434;-89
2023/04/08 10:56:48;;;;;;;11.77;10.90;;;12.70;99.90;;;;;;4947427;29;20486;-91
2023/04/08 10:59:26;;;;;;;10.90;10.00;;;12.10;99.90;;;;;;4945167;28;20506;-91
2023/04/08 11:01:54;;;;;;;10.30;9.40;;;;;;;;;;4931061;29;20781;-91
2023/04/08 11:04:24;;;;;;;11.70;10.60;;;12.20;99.90;;;;;;4943850;28;20463;-88
2023/04/08 11:07:00;;;;;;;10.87;10.07;;;12.00;99.90;;;;;;4953877;28;20530;-91
2023/04/08 11:09:26;;;;;;;11.40;10.40;;;12.20;99.90;;;;;;4935205;29;20485;-87
2023/04/08 11:11:52;;;;;;;9.80;8.80;;;11.70;99.90;;;;;;4938760;29;20449;-91
2023/04/08 11:14:20;;;;;;;9.73;8.93;;;11.50;99.90;;;;;;4946062;29;20438;-90
2023/04/08 11:16:46;;;;;;;13.43;8.87;;;11.50;99.90;;;;;;4950149;23;20521;-83
2023/04/08 11:19:16;;;;;;;9.27;8.70;;;;;;;;;;4967787;28;20832;-85
2023/04/08 11:21:45;;;;;;;9.40;8.60;;;;;;;;;;4962726;28;20522;-83
2023/04/08 11:24:12;;;;;;;8.83;8.13;;;;;;;;;;4951082;29;20420;-84
2023/04/08 11:26:38;;;;;;;10.60;9.53;;;;;;;;;;4975873;28;20489;-85
2023/04/08 11:29:05;;;;;;;10.30;9.30;;;;;;;;;;4991269;28;20409;-84
2023/04/08 11:31:31;;;;;;;9.73;8.93;;;;;;;;;;4973064;28;20433;-84
2023/04/08 11:33:57;;;;;;;10.20;9.30;;;;;;;;;;4974755;28;20414;-82
2023/04/08 11:36:24;;;;;;;11.73;10.73;;;;;;;;;;4971607;28;20437;-83
2023/04/08 11:38:53;;;;;;;10.33;9.40;;;;;;;;;;4983722;28;20457;-82
2023/04/08 11:41:20;;;;;;;9.73;8.90;;;;;;;;;;4968090;28;20446;-85
2023/04/08 11:43:53;;;;;;;9.53;8.63;;;;;;;;;;4969427;28;20409;-86
2023/04/08 11:46:19;;;;;;;9.67;8.87;;;;;;;;;;4968892;28;20450;-85
2023/04/08 11:49:01;;;;;;;9.20;8.53;;;;;;;;;;4984347;28;20420;-85
2023/04/08 11:51:27;;;;;;;10.53;9.63;;;;;;;;;;4959843;28;20434;-84
2023/04/08 11:53:53;;;;;;;13.90;12.50;;;;;;;;;;4944081;28;20442;-86
2023/04/08 11:56:21;;;;;;;21.17;18.67;;;;;;;;;;4960751;28;20446;-84
2023/04/08 11:58:47;;;;;;;12.10;11.13;;;;;;;;;;4960011;28;20437;-86
2023/04/08 12:01:14;;;;;;;10.87;9.73;;;;;;;;;;4968938;28;20446;-84
2023/04/08 12:03:53;;;;;;;11.00;10.20;;;;;;;;;;4955920;28;20881;-85
2023/04/08 12:06:18;;;;;;;9.90;9.20;;;;;;;;;;4969097;28;20440;-86
2023/04/08 12:08:48;;;;;;;10.53;9.70;;;;;;;;;;4995100;28;20443;-86
2023/04/08 12:11:14;;;;;;;10.23;9.50;;;;;;;;;;4990276;28;20433;-84
2023/04/08 12:13:41;;;;;;;11.80;10.90;;;;;;;;;;4979061;28;20724;-82
2023/04/08 12:16:07;;;;;;;12.50;11.40;;;;;;;;;;4972755;28;20484;-83
2023/04/08 12:18:33;;;;;;;11.50;10.60;;;;;;;;;;4980785;28;20405;-83
2023/04/08 12:20:59;;;;;;;11.30;10.50;;;;;;;;;;4972957;28;20440;-84
2023/04/08 12:23:25;;;;;;;10.97;10.03;;;;;;;;;;4965141;28;20446;-86
2023/04/08 12:25:52;;;;;;;12.03;10.83;;;;;;;;;;4967663;28;20444;-84
2023/04/08 12:28:18;;;;;;;12.43;11.33;;;;;;;;;;4972444;28;20421;-85
2023/04/08 12:30:45;;;;;;;12.33;11.20;;;;;;;;;;4962760;28;20460;-85
2023/04/08 12:33:11;;;;;;;12.40;11.30;;;;;;;;;;4958867;28;20479;-84
2023/04/08 12:35:37;;;;;;;11.10;10.20;;;;;;;;;;4961572;28;20438;-81
2023/04/08 12:38:03;;;;;;;12.53;11.40;;;;;;;;;;4954366;28;20450;-81
2023/04/08 12:40:29;;;;;;;12.83;11.90;;;;;;;;;;4963061;28;20473;-82
2023/04/08 12:42:55;;;;;;;12.67;11.60;;;;;;;;;;4957897;28;20444;-82
2023/04/08 12:45:21;;;;;;;12.10;11.10;;;;;;;;;;4963746;28;20432;-82
2023/04/08 12:47:47;;;;;;;13.63;12.60;;;;;;;;;;4967383;28;20480;-80
2023/04/08 12:50:14;;;;;;;12.20;11.20;;;;;;;;;;4981507;28;20472;-83
2023/04/08 12:52:41;;;;;;;12.70;11.70;;;;;;;;;;4958686;28;20442;-82
2023/04/08 12:55:07;;;;;;;14.30;13.00;;;;;;;;;;4971835;28;20437;-81
2023/04/08 12:57:33;;;;;;;13.50;12.30;;;;;;;;;;4960583;28;20914;-82
2023/04/08 12:59:59;;;;;;;14.93;13.73;;;;;;;;;;4958755;28;20960;-82
2023/04/08 13:02:25;;;;;;;15.80;14.07;;;;;;;;;;4953199;28;20654;-82
2023/04/08 13:04:54;;;;;;;16.80;15.27;;;;;;;;;;4968703;28;20440;-83
2023/04/08 13:07:20;;;;;;;16.47;15.13;;;;;;;;;;4951150;28;20437;-83
2023/04/08 13:09:46;;;;;;;15.27;14.03;;;;;;;;;;4975797;28;20425;-83
2023/04/08 13:12:13;;;;;;;16.00;14.70;;;;;;;;;;4959191;28;20486;-82
2023/04/08 13:14:39;;;;;;;14.90;13.50;;;;;;;;;;4963724;28;20456;-82
2023/04/08 13:17:05;;;;;;;14.20;13.10;;;13.80;99.90;;;;;;4954122;28;20464;-83
2023/04/08 13:19:30;;;;;;;15.57;14.17;;;14.50;99.90;;;;;;4966370;28;20468;-83
2023/04/08 13:21:56;;;;;;;14.90;13.60;;;13.50;99.90;;;;;;4947377;28;20256;-83
2023/04/08 13:24:22;;;;;;;15.90;14.57;;;14.10;99.90;;;;;;4959031;28;20190;-82
2023/04/08 13:26:48;;;;;;;21.10;15.23;;;13.80;99.90;;;;;;4953403;28;20276;-81
2023/04/08 13:29:13;;;;;;;14.53;13.43;;;13.30;99.90;;;;;;4956810;28;20480;-80
2023/04/08 13:31:39;;;;;;;16.10;14.70;;;13.80;99.90;;;;;;4959227;28;21111;-83
2023/04/08 13:34:05;;;;;;;14.63;13.50;;;13.80;99.90;;;;;;4960206;28;20644;-80
2023/04/08 13:36:31;;;;;;;14.37;13.17;;;14.40;99.90;;;;;;4936996;28;20189;-82
2023/04/08 13:38:56;;;;;;;14.50;13.10;;;13.80;99.90;;;;;;4960062;28;20543;-83
2023/04/08 13:41:24;;;;;;;16.17;14.53;;;14.70;99.90;;;;;;4934287;28;21002;-83
2023/04/08 13:43:49;;;;;;;13.97;12.83;;;14.00;99.90;;;;;;4957008;28;20186;-79
2023/04/08 13:46:15;;;;;;;14.00;12.80;;;14.80;99.90;;;;;;4949063;28;20457;-85
2023/04/08 13:48:41;;;;;;;12.67;11.67;;;14.30;99.90;;;;;;4956074;28;20200;-84
2023/04/08 13:51:07;;;;;;;12.17;10.97;;;;;;;;;;4965719;28;20265;-84
2023/04/08 13:53:33;;;;;;;11.70;10.67;;;;;;;;;;4969613;28;20622;-84
2023/04/08 13:56:01;;;;;;;11.13;10.43;;;14.10;99.90;;;;;;4949642;28;20764;-80
2023/04/08 13:58:27;;;;;;;11.07;10.40;;;14.10;99.90;;;;;;4956578;28;20446;-83
2023/04/08 14:00:55;;;;;;;10.93;10.13;;;;;;;;;;4962214;28;20936;-81
2023/04/08 14:03:21;;;;;;;13.00;11.97;;;14.00;99.90;;;;;;4971266;28;20519;-85
2023/04/08 14:05:46;;;;;;;12.53;11.63;;;14.00;99.90;;;;;;4961099;28;20445;-84